sensor_id;sensor_type;location;lat;lon;timestamp;pressure;altitude;pressure_sealevel;temperature;humidity
3102;BME280;1561;42.666;23.392;2023-10-19T00:02:45;95271.13;;;8.24;100.00
3102;BME280;1561;42.666;23.392;2023-10-19T00:05:13;95288.06;;;8.36;100.00
3102;BME280;1561;42.666;23.392;2023-10-19T00:07:42;95284.28;;;8.42;100.00
3102;BME280;1561;42.666;23.392;2023-10-19T00:10:10;95280.91;;;8.41;100.00
3102;BME280;1561;42.666;23.392;2023-10-19T00:12:42;95282.25;;;8.34;100.00
3102;BME280;1561;42.666;23.392;2023-10-19T00:15:10;95250.44;;;8.16;100.00
3102;BME280;1561;42.666;23.392;2023-10-19T00:17:39;95273.56;;;8.26;100.00
3102;BME280;1561;42.666;23.392;2023-10-19T00:20:11;95274.31;;;8.39;100.00
3102;BME280;1561;42.666;23.392;2023-10-19T00:23:11;95269.53;;;8.34;100.00
3102;BME280;1561;42.666;23.392;2023-10-19T00:25:39;95271.09;;;8.37;100.00
3102;BME280;1561;42.666;23.392;2023-10-19T00:28:07;95269.06;;;8.29;100.00
3102;BME280;1561;42.666;23.392;2023-10-19T00:30:35;95266.88;;;8.36;100.00
3102;BME280;1561;42.666;23.392;2023-10-19T00:33:02;95266.19;;;8.34;100.00
3102;BME280;1561;42.666;23.392;2023-10-19T00:35:42;95260.66;;;8.40;100.00
3102;BME280;1561;42.666;23.392;2023-10-19T00:38:26;95254.25;;;8.34;100.00
3102;BME280;1561;42.666;23.392;2023-10-19T00:41:09;95246.88;;;8.19;100.00
3102;BME280;1561;42.666;23.392;2023-10-19T00:43:41;95247.19;;;8.27;100.00
3102;BME280;1561;42.666;23.392;2023-10-19T00:46:12;95267.00;;;8.34;100.00
3102;BME280;1561;42.666;23.392;2023-10-19T00:48:54;95249.34;;;8.20;100.00
3102;BME280;1561;42.666;23.392;2023-10-19T00:51:26;95247.91;;;8.16;100.00
3102;BME280;1561;42.666;23.392;2023-10-19T00:54:16;95249.66;;;8.16;100.00
3102;BME280;1561;42.666;23.392;2023-10-19T00:56:53;95253.25;;;8.13;100.00
3102;BME280;1561;42.666;23.392;2023-10-19T00:59:31;95252.47;;;8.00;100.00
3102;BME280;1561;42.666;23.392;2023-10-19T01:02:01;95252.09;;;7.94;100.00
3102;BME280;1561;42.666;23.392;2023-10-19T01:04:43;95260.75;;;7.79;100.00
3102;BME280;1561;42.666;23.392;2023-10-19T01:07:16;95248.19;;;7.77;100.00
3102;BME280;1561;42.666;23.392;2023-10-19T01:09:58;95258.75;;;7.84;100.00
3102;BME280;1561;42.666;23.392;2023-10-19T01:12:29;95261.38;;;7.82;100.00
3102;BME280;1561;42.666;23.392;2023-10-19T01:15:07;95265.44;;;7.72;100.00
3102;BME280;1561;42.666;23.392;2023-10-19T01:17:40;95261.53;;;7.68;100.00
3102;BME280;1561;42.666;23.392;2023-10-19T01:20:11;95231.06;;;7.43;100.00
3102;BME280;1561;42.666;23.392;2023-10-19T01:22:53;95261.00;;;7.63;100.00
3102;BME280;1561;42.666;23.392;2023-10-19T01:25:32;95264.50;;;7.50;100.00
3102;BME280;1561;42.666;23.392;2023-10-19T01:28:07;95258.28;;;7.41;100.00
3102;BME280;1561;42.666;23.392;2023-10-19T01:30:36;95269.38;;;7.40;100.00
3102;BME280;1561;42.666;23.392;2023-10-19T01:33:05;95257.91;;;7.35;100.00
3102;BME280;1561;42.666;23.392;2023-10-19T01:35:42;95255.56;;;7.44;100.00
3102;BME280;1561;42.666;23.392;2023-10-19T01:38:27;95250.78;;;7.52;100.00
3102;BME280;1561;42.666;23.392;2023-10-19T01:40:57;95241.63;;;7.50;100.00
3102;BME280;1561;42.666;23.392;2023-10-19T01:43:25;95266.31;;;7.60;100.00
3102;BME280;1561;42.666;23.392;2023-10-19T01:45:56;95263.34;;;7.66;100.00
3102;BME280;1561;42.666;23.392;2023-10-19T01:48:23;95253.06;;;7.68;100.00
3102;BME280;1561;42.666;23.392;2023-10-19T01:50:59;95238.25;;;7.49;100.00
3102;BME280;1561;42.666;23.392;2023-10-19T01:53:31;95161.81;;;7.04;100.00
3102;BME280;1561;42.666;23.392;2023-10-19T01:56:00;95261.28;;;7.71;100.00
3102;BME280;1561;42.666;23.392;2023-10-19T01:58:25;95263.63;;;7.74;100.00
3102;BME280;1561;42.666;23.392;2023-10-19T02:00:53;95237.09;;;7.66;100.00
3102;BME280;1561;42.666;23.392;2023-10-19T02:03:21;95251.69;;;7.87;100.00
3102;BME280;1561;42.666;23.392;2023-10-19T02:05:57;95250.34;;;7.94;100.00
3102;BME280;1561;42.666;23.392;2023-10-19T02:08:25;95230.53;;;7.87;100.00
3102;BME280;1561;42.666;23.392;2023-10-19T02:10:59;95263.44;;;8.01;100.00
3102;BME280;1561;42.666;23.392;2023-10-19T02:13:28;95257.75;;;7.97;100.00
3102;BME280;1561;42.666;23.392;2023-10-19T02:15:58;95260.47;;;7.83;100.00
3102;BME280;1561;42.666;23.392;2023-10-19T02:18:24;95247.78;;;7.71;100.00
3102;BME280;1561;42.666;23.392;2023-10-19T02:20:52;95257.28;;;7.56;100.00
3102;BME280;1561;42.666;23.392;2023-10-19T02:23:18;95266.03;;;7.52;100.00
3102;BME280;1561;42.666;23.392;2023-10-19T02:25:45;95271.22;;;7.38;100.00
3102;BME280;1561;42.666;23.392;2023-10-19T02:28:23;95272.44;;;7.33;100.00
3102;BME280;1561;42.666;23.392;2023-10-19T02:30:57;95269.09;;;7.20;100.00
3102;BME280;1561;42.666;23.392;2023-10-19T02:33:36;95267.78;;;7.14;100.00
3102;BME280;1561;42.666;23.392;2023-10-19T02:36:04;95265.97;;;7.16;100.00
3102;BME280;1561;42.666;23.392;2023-10-19T02:38:48;95273.88;;;7.24;100.00
3102;BME280;1561;42.666;23.392;2023-10-19T02:41:15;95244.50;;;7.08;100.00
3102;BME280;1561;42.666;23.392;2023-10-19T02:43:47;95245.63;;;7.04;100.00
3102;BME280;1561;42.666;23.392;2023-10-19T02:46:28;95261.75;;;7.15;100.00
3102;BME280;1561;42.666;23.392;2023-10-19T02:48:54;95237.72;;;6.96;100.00
3102;BME280;1561;42.666;23.392;2023-10-19T02:51:22;95262.50;;;7.05;100.00
3102;BME280;1561;42.666;23.392;2023-10-19T02:53:49;95264.63;;;7.11;100.00
3102;BME280;1561;42.666;23.392;2023-10-19T02:56:16;95266.06;;;7.15;100.00
3102;BME280;1561;42.666;23.392;2023-10-19T02:58:46;95263.81;;;7.23;100.00
3102;BME280;1561;42.666;23.392;2023-10-19T03:01:17;95265.97;;;7.16;100.00
3102;BME280;1561;42.666;23.392;2023-10-19T03:03:48;95257.09;;;7.09;100.00
3102;BME280;1561;42.666;23.392;2023-10-19T03:06:23;95264.72;;;7.09;100.00
3102;BME280;1561;42.666;23.392;2023-10-19T03:08:51;95254.69;;;7.20;100.00
3102;BME280;1561;42.666;23.392;2023-10-19T03:11:23;95254.13;;;7.40;100.00
3102;BME280;1561;42.666;23.392;2023-10-19T03:14:00;95227.72;;;7.30;100.00
3102;BME280;1561;42.666;23.392;2023-10-19T03:16:36;95248.91;;;7.54;100.00
3102;BME280;1561;42.666;23.392;2023-10-19T03:19:05;95258.00;;;7.46;100.00
3102;BME280;1561;42.666;23.392;2023-10-19T03:21:45;95242.19;;;7.66;100.00
3102;BME280;1561;42.666;23.392;2023-10-19T03:24:15;95213.81;;;7.23;100.00
3102;BME280;1561;42.666;23.392;2023-10-19T03:26:51;95247.94;;;7.44;100.00
3102;BME280;1561;42.666;23.392;2023-10-19T03:29:24;95248.13;;;7.41;100.00
3102;BME280;1561;42.666;23.392;2023-10-19T03:31:57;95254.03;;;7.42;100.00
3102;BME280;1561;42.666;23.392;2023-10-19T03:34:25;95253.03;;;7.32;100.00
3102;BME280;1561;42.666;23.392;2023-10-19T03:37:04;95218.91;;;7.11;100.00
3102;BME280;1561;42.666;23.392;2023-10-19T03:39:38;95244.69;;;7.30;100.00
3102;BME280;1561;42.666;23.392;2023-10-19T03:42:11;95227.34;;;7.24;100.00
3102;BME280;1561;42.666;23.392;2023-10-19T03:44:43;95233.31;;;7.35;100.00
3102;BME280;1561;42.666;23.392;2023-10-19T03:47:28;95231.09;;;7.18;100.00
3102;BME280;1561;42.666;23.392;2023-10-19T03:50:25;95234.53;;;7.30;100.00
3102;BME280;1561;42.666;23.392;2023-10-19T03:52:55;95183.38;;;6.98;100.00
3102;BME280;1561;42.666;23.392;2023-10-19T03:55:23;95232.50;;;7.22;100.00
3102;BME280;1561;42.666;23.392;2023-10-19T03:57:54;95238.91;;;7.15;100.00
3102;BME280;1561;42.666;23.392;2023-10-19T04:00:23;95231.41;;;7.26;100.00
3102;BME280;1561;42.666;23.392;2023-10-19T04:02:54;95230.59;;;7.13;100.00
3102;BME280;1561;42.666;23.392;2023-10-19T04:05:23;95230.78;;;7.23;100.00
3102;BME280;1561;42.666;23.392;2023-10-19T04:07:53;95230.28;;;7.18;100.00
3102;BME280;1561;42.666;23.392;2023-10-19T04:10:25;95229.34;;;7.31;100.00
3102;BME280;1561;42.666;23.392;2023-10-19T04:13:12;95238.72;;;7.18;100.00
3102;BME280;1561;42.666;23.392;2023-10-19T04:15:40;95229.38;;;7.19;100.00
3102;BME280;1561;42.666;23.392;2023-10-19T04:18:08;95235.25;;;7.19;100.00
3102;BME280;1561;42.666;23.392;2023-10-19T04:20:37;95238.00;;;7.04;100.00
3102;BME280;1561;42.666;23.392;2023-10-19T04:23:25;95229.38;;;7.06;100.00
3102;BME280;1561;42.666;23.392;2023-10-19T04:25:55;95227.03;;;7.16;100.00
3102;BME280;1561;42.666;23.392;2023-10-19T04:28:35;95233.84;;;7.03;100.00
3102;BME280;1561;42.666;23.392;2023-10-19T04:31:22;95227.44;;;6.97;100.00
3102;BME280;1561;42.666;23.392;2023-10-19T04:33:52;95212.91;;;7.12;100.00
3102;BME280;1561;42.666;23.392;2023-10-19T04:36:37;95229.66;;;6.52;100.00
3102;BME280;1561;42.666;23.392;2023-10-19T04:39:14;95243.03;;;6.41;100.00
3102;BME280;1561;42.666;23.392;2023-10-19T04:41:44;95231.63;;;6.34;100.00
3102;BME280;1561;42.666;23.392;2023-10-19T04:44:11;95231.63;;;6.34;100.00
3102;BME280;1561;42.666;23.392;2023-10-19T04:46:44;95227.75;;;6.16;100.00
3102;BME280;1561;42.666;23.392;2023-10-19T04:49:14;95222.25;;;6.22;100.00
3102;BME280;1561;42.666;23.392;2023-10-19T04:55:04;95229.88;;;6.22;100.00
3102;BME280;1561;42.666;23.392;2023-10-19T04:57:34;95212.34;;;6.19;100.00
3102;BME280;1561;42.666;23.392;2023-10-19T05:00:24;95217.34;;;6.46;100.00
3102;BME280;1561;42.666;23.392;2023-10-19T05:02:54;95217.28;;;6.72;100.00
3102;BME280;1561;42.666;23.392;2023-10-19T05:05:26;95223.59;;;7.04;100.00
3102;BME280;1561;42.666;23.392;2023-10-19T05:07:57;95221.22;;;7.26;100.00
3102;BME280;1561;42.666;23.392;2023-10-19T05:10:24;95226.22;;;7.28;100.00
3102;BME280;1561;42.666;23.392;2023-10-19T05:12:52;95205.59;;;7.68;100.00
3102;BME280;1561;42.666;23.392;2023-10-19T05:15:21;95211.78;;;8.00;100.00
3102;BME280;1561;42.666;23.392;2023-10-19T05:17:48;95218.28;;;8.62;100.00
3102;BME280;1561;42.666;23.392;2023-10-19T05:20:17;95215.91;;;9.16;100.00
3102;BME280;1561;42.666;23.392;2023-10-19T05:22:46;95216.63;;;9.62;100.00
3102;BME280;1561;42.666;23.392;2023-10-19T05:25:14;95225.09;;;10.27;100.00
3102;BME280;1561;42.666;23.392;2023-10-19T05:27:41;95210.16;;;11.05;100.00
3102;BME280;1561;42.666;23.392;2023-10-19T05:30:12;95217.44;;;11.09;100.00
3102;BME280;1561;42.666;23.392;2023-10-19T05:32:39;95206.16;;;11.12;100.00
3102;BME280;1561;42.666;23.392;2023-10-19T05:35:07;95213.53;;;10.85;100.00
3102;BME280;1561;42.666;23.392;2023-10-19T05:37:43;95216.22;;;12.60;100.00
3102;BME280;1561;42.666;23.392;2023-10-19T05:40:11;95222.34;;;13.34;100.00
3102;BME280;1561;42.666;23.392;2023-10-19T05:42:40;95202.19;;;12.36;100.00
3102;BME280;1561;42.666;23.392;2023-10-19T05:45:10;95232.22;;;13.56;100.00
3102;BME280;1561;42.666;23.392;2023-10-19T05:47:42;95231.84;;;12.38;100.00
3102;BME280;1561;42.666;23.392;2023-10-19T05:50:10;95225.28;;;12.55;100.00
3102;BME280;1561;42.666;23.392;2023-10-19T05:52:42;95240.22;;;12.88;100.00
3102;BME280;1561;42.666;23.392;2023-10-19T05:55:10;95239.00;;;12.82;100.00
3102;BME280;1561;42.666;23.392;2023-10-19T05:57:37;95233.78;;;14.30;100.00
3102;BME280;1561;42.666;23.392;2023-10-19T06:00:08;95225.69;;;13.44;100.00
3102;BME280;1561;42.666;23.392;2023-10-19T06:02:40;95236.84;;;12.87;100.00
3102;BME280;1561;42.666;23.392;2023-10-19T06:05:10;95210.44;;;12.49;100.00
3102;BME280;1561;42.666;23.392;2023-10-19T06:07:37;95239.59;;;11.80;100.00
3102;BME280;1561;42.666;23.392;2023-10-19T06:10:11;95238.72;;;12.28;100.00
3102;BME280;1561;42.666;23.392;2023-10-19T06:12:41;95215.38;;;12.12;100.00
3102;BME280;1561;42.666;23.392;2023-10-19T06:15:09;95232.41;;;12.70;100.00
3102;BME280;1561;42.666;23.392;2023-10-19T06:17:38;95243.72;;;12.77;100.00
3102;BME280;1561;42.666;23.392;2023-10-19T06:20:08;95205.75;;;11.76;100.00
3102;BME280;1561;42.666;23.392;2023-10-19T06:22:46;95166.94;;;11.32;100.00
3102;BME280;1561;42.666;23.392;2023-10-19T06:25:18;95228.91;;;11.75;100.00
3102;BME280;1561;42.666;23.392;2023-10-19T06:27:45;95231.31;;;12.16;100.00
3102;BME280;1561;42.666;23.392;2023-10-19T06:30:13;95240.56;;;12.07;100.00
3102;BME280;1561;42.666;23.392;2023-10-19T06:32:46;95230.81;;;11.73;100.00
3102;BME280;1561;42.666;23.392;2023-10-19T06:35:14;95227.66;;;11.60;100.00
3102;BME280;1561;42.666;23.392;2023-10-19T06:37:42;95227.41;;;11.63;100.00
3102;BME280;1561;42.666;23.392;2023-10-19T06:40:10;95222.47;;;11.80;100.00
3102;BME280;1561;42.666;23.392;2023-10-19T06:42:41;95224.00;;;11.32;100.00
3102;BME280;1561;42.666;23.392;2023-10-19T06:45:09;95230.25;;;11.69;100.00
3102;BME280;1561;42.666;23.392;2023-10-19T06:47:39;95226.28;;;11.95;100.00
3102;BME280;1561;42.666;23.392;2023-10-19T06:50:11;95227.41;;;12.21;100.00
3102;BME280;1561;42.666;23.392;2023-10-19T06:52:38;95231.03;;;12.19;100.00
3102;BME280;1561;42.666;23.392;2023-10-19T06:55:10;95244.53;;;11.42;100.00
3102;BME280;1561;42.666;23.392;2023-10-19T06:57:44;95228.44;;;12.00;100.00
3102;BME280;1561;42.666;23.392;2023-10-19T07:00:12;95224.38;;;11.88;100.00
3102;BME280;1561;42.666;23.392;2023-10-19T07:02:42;95219.16;;;11.99;100.00
3102;BME280;1561;42.666;23.392;2023-10-19T07:05:21;95222.00;;;12.24;100.00
3102;BME280;1561;42.666;23.392;2023-10-19T07:07:51;95209.09;;;12.64;100.00
3102;BME280;1561;42.666;23.392;2023-10-19T07:10:23;95209.59;;;12.86;100.00
3102;BME280;1561;42.666;23.392;2023-10-19T07:12:54;95218.09;;;12.77;100.00
3102;BME280;1561;42.666;23.392;2023-10-19T07:15:22;95206.38;;;12.84;100.00
3102;BME280;1561;42.666;23.392;2023-10-19T07:17:51;95209.28;;;13.18;100.00
3102;BME280;1561;42.666;23.392;2023-10-19T07:20:19;95204.78;;;14.55;100.00
3102;BME280;1561;42.666;23.392;2023-10-19T07:22:51;95213.41;;;15.57;100.00
3102;BME280;1561;42.666;23.392;2023-10-19T07:25:18;95221.34;;;15.21;100.00
3102;BME280;1561;42.666;23.392;2023-10-19T07:27:53;95217.94;;;14.69;100.00
3102;BME280;1561;42.666;23.392;2023-10-19T07:30:21;95218.50;;;14.01;100.00
3102;BME280;1561;42.666;23.392;2023-10-19T07:32:54;95215.28;;;13.99;100.00
3102;BME280;1561;42.666;23.392;2023-10-19T07:35:24;95184.50;;;14.69;100.00
3102;BME280;1561;42.666;23.392;2023-10-19T07:37:57;95203.84;;;15.83;100.00
3102;BME280;1561;42.666;23.392;2023-10-19T07:40:35;95209.56;;;16.11;100.00
3102;BME280;1561;42.666;23.392;2023-10-19T07:43:03;95182.09;;;15.19;100.00
3102;BME280;1561;42.666;23.392;2023-10-19T07:45:37;95223.31;;;15.27;100.00
3102;BME280;1561;42.666;23.392;2023-10-19T07:48:15;95227.97;;;15.23;100.00
3102;BME280;1561;42.666;23.392;2023-10-19T07:50:45;95213.94;;;16.10;100.00
3102;BME280;1561;42.666;23.392;2023-10-19T07:53:15;95225.50;;;15.65;100.00
3102;BME280;1561;42.666;23.392;2023-10-19T07:55:48;95227.09;;;14.54;100.00
3102;BME280;1561;42.666;23.392;2023-10-19T07:58:18;95216.69;;;14.99;100.00
3102;BME280;1561;42.666;23.392;2023-10-19T08:00:45;95204.09;;;18.43;100.00
3102;BME280;1561;42.666;23.392;2023-10-19T08:03:20;95209.38;;;20.75;80.82
3102;BME280;1561;42.666;23.392;2023-10-19T08:05:47;95197.06;;;21.26;73.13
3102;BME280;1561;42.666;23.392;2023-10-19T08:08:17;95216.59;;;22.04;67.63
3102;BME280;1561;42.666;23.392;2023-10-19T08:10:43;95222.25;;;20.62;71.42
3102;BME280;1561;42.666;23.392;2023-10-19T08:13:12;95234.38;;;17.02;100.00
3102;BME280;1561;42.666;23.392;2023-10-19T08:15:44;95224.78;;;18.66;94.11
3102;BME280;1561;42.666;23.392;2023-10-19T08:18:11;95215.88;;;21.28;73.64
3102;BME280;1561;42.666;23.392;2023-10-19T08:20:40;95208.19;;;22.56;62.57
3102;BME280;1561;42.666;23.392;2023-10-19T08:23:11;95203.09;;;21.05;66.02
3102;BME280;1561;42.666;23.392;2023-10-19T08:25:43;95201.88;;;23.37;56.54
3102;BME280;1561;42.666;23.392;2023-10-19T08:28:10;95202.00;;;23.81;54.73
3102;BME280;1561;42.666;23.392;2023-10-19T08:30:38;95207.94;;;22.44;58.31
3102;BME280;1561;42.666;23.392;2023-10-19T08:33:13;95205.59;;;21.41;65.89
3102;BME280;1561;42.666;23.392;2023-10-19T08:35:41;95213.88;;;19.81;76.22
3102;BME280;1561;42.666;23.392;2023-10-19T08:38:09;95215.03;;;21.76;65.17
3102;BME280;1561;42.666;23.392;2023-10-19T08:40:37;95205.50;;;21.07;68.59
3102;BME280;1561;42.666;23.392;2023-10-19T08:43:04;95217.84;;;22.21;61.76
3102;BME280;1561;42.666;23.392;2023-10-19T08:45:33;95206.63;;;22.87;60.00
3102;BME280;1561;42.666;23.392;2023-10-19T08:48:01;95208.56;;;22.06;61.56
3102;BME280;1561;42.666;23.392;2023-10-19T08:50:31;95211.47;;;21.56;65.11
3102;BME280;1561;42.666;23.392;2023-10-19T08:53:00;95210.59;;;21.70;62.92
3102;BME280;1561;42.666;23.392;2023-10-19T08:55:28;95201.28;;;22.29;61.50
3102;BME280;1561;42.666;23.392;2023-10-19T08:57:57;95207.63;;;20.40;74.60
3102;BME280;1561;42.666;23.392;2023-10-19T09:00:26;95209.97;;;19.19;80.17
3102;BME280;1561;42.666;23.392;2023-10-19T09:02:53;95206.59;;;20.56;76.69
3102;BME280;1561;42.666;23.392;2023-10-19T09:05:23;95207.25;;;23.02;61.14
3102;BME280;1561;42.666;23.392;2023-10-19T09:07:53;95208.50;;;24.73;52.23
3102;BME280;1561;42.666;23.392;2023-10-19T09:10:24;95178.31;;;24.39;51.67
3102;BME280;1561;42.666;23.392;2023-10-19T09:13:03;95195.84;;;23.43;55.66
3102;BME280;1561;42.666;23.392;2023-10-19T09:15:37;95189.63;;;24.27;52.58
3102;BME280;1561;42.666;23.392;2023-10-19T09:18:12;95175.19;;;24.24;51.94
3102;BME280;1561;42.666;23.392;2023-10-19T09:20:41;95171.53;;;23.62;56.12
3102;BME280;1561;42.666;23.392;2023-10-19T09:26:10;95175.31;;;23.79;52.81
3102;BME280;1561;42.666;23.392;2023-10-19T09:28:39;95170.06;;;24.80;50.91
3102;BME280;1561;42.666;23.392;2023-10-19T09:31:08;95157.28;;;21.93;59.27
3102;BME280;1561;42.666;23.392;2023-10-19T09:33:35;95166.69;;;21.94;59.90
3102;BME280;1561;42.666;23.392;2023-10-19T09:36:07;95163.28;;;20.56;73.06
3102;BME280;1561;42.666;23.392;2023-10-19T09:38:43;95149.81;;;20.67;73.79
3102;BME280;1561;42.666;23.392;2023-10-19T09:41:12;95145.91;;;18.62;94.02
3102;BME280;1561;42.666;23.392;2023-10-19T09:43:43;95124.50;;;18.68;96.24
3102;BME280;1561;42.666;23.392;2023-10-19T09:46:11;95141.75;;;18.53;100.00
3102;BME280;1561;42.666;23.392;2023-10-19T09:48:41;95145.53;;;18.65;94.79
3102;BME280;1561;42.666;23.392;2023-10-19T09:51:15;95124.91;;;18.57;95.23
3102;BME280;1561;42.666;23.392;2023-10-19T09:53:47;95132.09;;;19.50;91.76
3102;BME280;1561;42.666;23.392;2023-10-19T09:56:23;95118.00;;;20.17;86.89
3102;BME280;1561;42.666;23.392;2023-10-19T09:58:57;95121.25;;;20.67;79.71
3102;BME280;1561;42.666;23.392;2023-10-19T10:01:28;95123.56;;;19.12;92.30
3102;BME280;1561;42.666;23.392;2023-10-19T10:03:56;95126.31;;;20.12;87.12
3102;BME280;1561;42.666;23.392;2023-10-19T10:06:30;95035.63;;;19.19;87.13
3102;BME280;1561;42.666;23.392;2023-10-19T10:09:09;95110.09;;;19.17;90.89
3102;BME280;1561;42.666;23.392;2023-10-19T10:11:53;95113.06;;;18.62;100.00
3102;BME280;1561;42.666;23.392;2023-10-19T10:14:25;95109.41;;;19.66;90.06
3102;BME280;1561;42.666;23.392;2023-10-19T10:17:02;95104.53;;;20.97;76.95
3102;BME280;1561;42.666;23.392;2023-10-19T10:19:35;95074.28;;;22.18;67.79
3102;BME280;1561;42.666;23.392;2023-10-19T10:22:08;95098.53;;;24.06;58.24
3102;BME280;1561;42.666;23.392;2023-10-19T10:24:41;95086.00;;;23.20;60.01
3102;BME280;1561;42.666;23.392;2023-10-19T10:27:10;95081.03;;;21.86;64.31
3102;BME280;1561;42.666;23.392;2023-10-19T10:29:53;95085.19;;;22.60;63.04
3102;BME280;1561;42.666;23.392;2023-10-19T10:32:44;95081.84;;;21.12;72.11
3102;BME280;1561;42.666;23.392;2023-10-19T10:38:13;95070.44;;;24.70;55.95
3102;BME280;1561;42.666;23.392;2023-10-19T10:40:44;95073.84;;;21.95;65.75
3102;BME280;1561;42.666;23.392;2023-10-19T10:43:14;95068.31;;;21.64;69.24
3102;BME280;1561;42.666;23.392;2023-10-19T10:45:42;94954.03;;;23.12;61.13
3102;BME280;1561;42.666;23.392;2023-10-19T10:48:12;95034.19;;;23.93;57.48
3102;BME280;1561;42.666;23.392;2023-10-19T10:50:41;95034.22;;;23.80;58.70
3102;BME280;1561;42.666;23.392;2023-10-19T10:53:13;95035.88;;;24.68;55.30
3102;BME280;1561;42.666;23.392;2023-10-19T10:55:42;95034.75;;;23.45;59.37
3102;BME280;1561;42.666;23.392;2023-10-19T10:58:09;95025.47;;;22.72;64.46
3102;BME280;1561;42.666;23.392;2023-10-19T11:00:44;94985.03;;;22.63;64.11
3102;BME280;1561;42.666;23.392;2023-10-19T11:03:13;95021.19;;;23.30;61.92
3102;BME280;1561;42.666;23.392;2023-10-19T11:05:45;95001.56;;;23.14;63.45
3102;BME280;1561;42.666;23.392;2023-10-19T11:08:14;95011.31;;;22.48;66.28
3102;BME280;1561;42.666;23.392;2023-10-19T11:10:43;95004.28;;;22.49;64.60
3102;BME280;1561;42.666;23.392;2023-10-19T11:13:14;95000.69;;;21.51;72.54
3102;BME280;1561;42.666;23.392;2023-10-19T11:15:53;94991.72;;;21.13;76.37
3102;BME280;1561;42.666;23.392;2023-10-19T11:18:28;94992.81;;;22.37;69.32
3102;BME280;1561;42.666;23.392;2023-10-19T11:20:57;94987.94;;;23.63;63.00
3102;BME280;1561;42.666;23.392;2023-10-19T11:23:40;94969.34;;;23.84;61.02
3102;BME280;1561;42.666;23.392;2023-10-19T11:26:10;94954.03;;;23.63;59.25
3102;BME280;1561;42.666;23.392;2023-10-19T11:28:38;94980.09;;;23.25;62.16
3102;BME280;1561;42.666;23.392;2023-10-19T11:31:56;94968.66;;;23.26;62.42
3102;BME280;1561;42.666;23.392;2023-10-19T11:34:25;94957.47;;;23.19;63.25
3102;BME280;1561;42.666;23.392;2023-10-19T11:36:54;94954.72;;;23.83;60.61
3102;BME280;1561;42.666;23.392;2023-10-19T11:39:25;94958.00;;;23.27;62.06
3102;BME280;1561;42.666;23.392;2023-10-19T11:41:55;94957.03;;;23.29;62.25
3102;BME280;1561;42.666;23.392;2023-10-19T11:44:23;94950.97;;;22.12;68.10
3102;BME280;1561;42.666;23.392;2023-10-19T11:46:54;94950.59;;;22.28;69.09
3102;BME280;1561;42.666;23.392;2023-10-19T11:49:23;94939.13;;;23.39;63.10
3102;BME280;1561;42.666;23.392;2023-10-19T11:51:50;94931.09;;;22.83;64.35
3102;BME280;1561;42.666;23.392;2023-10-19T11:54:18;94928.34;;;22.65;66.84
3102;BME280;1561;42.666;23.392;2023-10-19T11:56:45;94939.38;;;23.17;63.72
3102;BME280;1561;42.666;23.392;2023-10-19T11:59:13;94942.53;;;22.82;65.70
3102;BME280;1561;42.666;23.392;2023-10-19T12:01:41;94932.19;;;22.23;65.99
3102;BME280;1561;42.666;23.392;2023-10-19T12:04:12;94929.16;;;22.39;66.67
3102;BME280;1561;42.666;23.392;2023-10-19T12:06:39;94933.75;;;21.72;70.09
3102;BME280;1561;42.666;23.392;2023-10-19T12:09:07;94924.16;;;22.51;67.54
3102;BME280;1561;42.666;23.392;2023-10-19T12:11:41;94928.94;;;22.60;65.71
3102;BME280;1561;42.666;23.392;2023-10-19T12:14:08;94924.16;;;22.31;67.66
3102;BME280;1561;42.666;23.392;2023-10-19T12:16:42;94939.03;;;21.25;73.22
3102;BME280;1561;42.666;23.392;2023-10-19T12:19:16;94926.69;;;21.53;73.49
3102;BME280;1561;42.666;23.392;2023-10-19T12:21:48;94908.91;;;21.63;71.62
3102;BME280;1561;42.666;23.392;2023-10-19T12:24:17;94910.94;;;21.01;75.66
3102;BME280;1561;42.666;23.392;2023-10-19T12:26:49;94898.53;;;21.70;72.24
3102;BME280;1561;42.666;23.392;2023-10-19T12:29:17;94874.50;;;21.48;72.60
3102;BME280;1561;42.666;23.392;2023-10-19T12:31:48;94909.75;;;22.16;69.39
3102;BME280;1561;42.666;23.392;2023-10-19T12:34:19;94905.56;;;22.08;69.89
3102;BME280;1561;42.666;23.392;2023-10-19T12:36:48;94899.88;;;22.70;66.07
3102;BME280;1561;42.666;23.392;2023-10-19T12:39:17;94899.84;;;21.27;74.73
3102;BME280;1561;42.666;23.392;2023-10-19T12:41:58;94898.69;;;21.42;74.63
3102;BME280;1561;42.666;23.392;2023-10-19T12:44:28;94893.31;;;21.63;72.66
3102;BME280;1561;42.666;23.392;2023-10-19T12:47:04;94885.69;;;21.42;73.53
3102;BME280;1561;42.666;23.392;2023-10-19T12:49:37;94880.53;;;21.75;72.70
3102;BME280;1561;42.666;23.392;2023-10-19T12:52:05;94880.50;;;21.49;73.15
3102;BME280;1561;42.666;23.392;2023-10-19T12:54:33;94890.50;;;20.85;78.67
3102;BME280;1561;42.666;23.392;2023-10-19T12:57:04;94886.50;;;21.56;74.49
3102;BME280;1561;42.666;23.392;2023-10-19T12:59:40;94880.03;;;21.26;74.48
3102;BME280;1561;42.666;23.392;2023-10-19T13:02:09;94860.22;;;20.58;78.20
3102;BME280;1561;42.666;23.392;2023-10-19T13:04:42;94878.56;;;20.97;77.82
3102;BME280;1561;42.666;23.392;2023-10-19T13:07:15;94878.22;;;21.13;76.53
3102;BME280;1561;42.666;23.392;2023-10-19T13:09:43;94877.25;;;21.27;73.97
3102;BME280;1561;42.666;23.392;2023-10-19T13:12:10;94879.72;;;21.55;73.01
3102;BME280;1561;42.666;23.392;2023-10-19T13:14:38;94869.50;;;21.47;72.20
3102;BME280;1561;42.666;23.392;2023-10-19T13:17:06;94869.38;;;20.95;76.69
3102;BME280;1561;42.666;23.392;2023-10-19T13:19:33;94862.25;;;20.69;80.02
3102;BME280;1561;42.666;23.392;2023-10-19T13:22:11;94855.88;;;21.25;76.55
3102;BME280;1561;42.666;23.392;2023-10-19T13:24:40;94810.50;;;21.21;74.15
3102;BME280;1561;42.666;23.392;2023-10-19T13:27:08;94832.31;;;21.40;73.82
3102;BME280;1561;42.666;23.392;2023-10-19T13:29:35;94792.41;;;20.27;78.96
3102;BME280;1561;42.666;23.392;2023-10-19T13:32:09;94844.28;;;21.28;76.40
3102;BME280;1561;42.666;23.392;2023-10-19T13:34:38;94808.09;;;21.20;73.45
3102;BME280;1561;42.666;23.392;2023-10-19T13:37:07;94829.31;;;21.49;73.40
3102;BME280;1561;42.666;23.392;2023-10-19T13:39:34;94824.28;;;21.28;74.69
3102;BME280;1561;42.666;23.392;2023-10-19T13:42:06;94746.78;;;20.52;75.87
3102;BME280;1561;42.666;23.392;2023-10-19T13:44:34;94821.66;;;20.96;78.61